KLOU/LOU METAR and TAF weather

Enter ICAO airport designator
Station Type Date Time Source
KLOU METAR 2020/07/10 17:53 UTC NOAA

KLOU 101753Z 23011G21KT 10SM FEW039 31/21 A2986 RMK AO2 SLP103 60000 T03060206 10317 20267 56006


Station Type Date Time Source
KLOU Decoded METAR 2020/07/10 17:53 UTC NOAA

BOWMAN FIELD, KY, United States (KLOU) 38-14N 085-40W 164M
Jul 10, 2020 - 01:53 PM EDT / 2020.07.10 1753 UTC
Wind: from the SW (230 degrees) at 13 MPH (11 KT) gusting to 24 MPH (21 KT):0
Visibility: 10 mile(s):0
Sky conditions: mostly clear
Temperature: 87.1 F (30.6 C)
Dew Point: 69.1 F (20.6 C)
Relative Humidity: 55%
Pressure (altimeter): 29.86 in. Hg (1011 hPa)
Pressure tendency: 0.02 inches (0.6 hPa) lower than three hours ago
ob: KLOU 101753Z 23011G21KT 10SM FEW039 31/21 A2986 RMK AO2 SLP103 60000 T03060206 10317 20267 56006
cycle: 18

Station Type Date Time Source
KLOU TAF UTC NOAA

Error!

Example: see airport list